Latest Weather Observations for Luncheon Hill

IDT60801

Issued at 2:35 pm EDT Saturday 29 November 2014 (issued every 30 minutes, with the page automatically refreshed every 10 minutes)

About weather observations | Map of weather stations | Latest weather observations for TAS | Other Formats
Station Details ID: 091259 Name: LUNCHEON HILL (FORESTRY) Lat: -41.15 Lon: 145.15 Height: 344.0 m
Data from the previous 72 hours. | See also: Recent months at Luncheon Hill
Date/Time
EDT
Temp
°C
App
Temp
°C
Dew
Point
Rel
Hum
%
Delta-T
°C
Wind Press
QNH
hPa
Press
MSL
hPa
Rain
since 9 am
mm
Dir
 
Spd
km/h
Gust
km/h
Spd
kts
Gust
kts
29/02:30pm 22.5 19.2 11.6 50 6.2 NNW 20 28 11 15 - - 0.0
29/02:00pm 22.2 17.9 12.2 53 5.7 NNW 26 39 14 21 - - 0.0
29/01:30pm 21.6 18.4 9.8 47 6.5 NW 17 22 9 12 - - 0.0
29/01:00pm 21.9 17.8 8.8 43 7.1 NNW 20 32 11 17 - - 0.0
29/12:30pm 21.9 18.0 9.4 45 6.8 N 20 28 11 15 - - 0.0
29/12:00pm 20.2 17.5 7.2 43 6.7 NE 11 20 6 11 - - 0.0
29/11:30am 20.5 17.5 9.1 48 6.1 N 15 24 8 13 - - 0.0
29/11:00am 19.8 16.8 9.1 50 5.7 NNE 15 24 8 13 - - 0.0
29/10:30am 17.8 14.4 7.5 51 5.3 ENE 15 24 8 13 - - 0.0
29/10:00am 17.0 14.2 8.7 58 4.3 NE 13 22 7 12 - - 0.0
29/09:30am 15.8 12.6 8.3 61 3.9 E 15 20 8 11 - - 0.0
29/09:00am 14.2 11.0 8.4 68 3.0 ENE 15 24 8 13 - - 0.0
29/08:30am 13.5 9.6 9.4 76 2.1 ENE 20 26 11 14 - - 0.0
29/08:00am 12.3 9.7 9.3 82 1.5 E 13 19 7 10 - - 0.0
29/07:30am 11.4 8.7 9.0 85 1.2 E 13 19 7 10 - - 0.0
29/07:00am 10.2 6.6 8.5 89 0.8 E 17 20 9 11 - - 0.0
29/06:30am 9.2 6.3 8.3 94 0.4 ESE 13 20 7 11 - - 0.0
29/06:00am 8.5 5.5 7.7 95 0.4 ESE 13 17 7 9 - - 0.0
29/05:30am 8.5 4.7 7.7 95 0.4 ESE 17 20 9 11 - - 0.0
29/05:00am 8.7 4.6 7.9 95 0.4 E 19 26 10 14 - - 0.0
29/04:30am 8.8 4.7 8.0 95 0.4 ESE 19 24 10 13 - - 0.0
29/04:00am 8.7 4.6 7.8 94 0.4 E 19 24 10 13 - - 0.0
29/03:30am 9.2 5.0 8.1 93 0.5 E 20 26 11 14 - - 0.0
29/03:00am 9.3 5.6 7.9 91 0.7 E 17 20 9 11 - - 0.0
29/02:30am 9.5 5.5 8.1 91 0.7 ESE 19 22 10 12 - - 0.0
29/02:00am 9.5 5.7 7.6 88 0.9 E 17 20 9 11 - - 0.0
29/01:30am 9.9 5.7 7.5 85 1.2 E 19 26 10 14 - - 0.0
29/01:00am 9.8 6.0 7.4 85 1.2 ESE 17 20 9 11 - - 0.0
29/12:30am 8.9 5.8 7.2 89 0.8 SSE 13 15 7 8 - - 0.0
29/12:00am 8.9 5.0 7.2 89 0.8 SSE 17 19 9 10 - - 0.0
 
Date/Time
EDT
Temp
°C
App
Temp
°C
Dew
Point
Rel
Hum
%
Delta-T
°C
Wind Press
QNH
hPa
Press
MSL
hPa
Rain
since 9 am
mm
Dir
 
Spd
km/h
Gust
km/h
Spd
kts
Gust
kts
28/11:30pm 9.3 5.8 7.4 88 0.9 SSE 15 20 8 11 - - 0.0
28/11:00pm 9.1 5.6 7.2 88 0.9 SSE 15 19 8 10 - - 0.0
28/10:30pm 9.5 6.0 7.3 86 1.1 SSE 15 17 8 9 - - 0.0
28/10:00pm 9.8 6.3 7.4 85 1.2 SSE 15 22 8 12 - - 0.0
28/09:30pm 9.9 6.0 7.2 83 1.3 S 17 20 9 11 - - 0.0
28/09:00pm 10.8 6.9 7.3 79 1.7 S 17 22 9 12 - - 0.0
28/08:30pm 11.7 7.8 7.2 74 2.2 S 17 26 9 14 - - 0.0
28/08:00pm 12.9 8.8 7.8 71 2.6 S 19 28 10 15 - - 0.0
28/07:30pm 14.2 10.1 7.7 65 3.3 S 19 32 10 17 - - 0.0
28/07:00pm 15.3 11.0 7.8 61 3.8 S 20 32 11 17 - - 0.0
28/06:30pm 16.0 11.7 8.0 59 4.1 S 20 35 11 19 - - 0.0
28/06:00pm 16.9 11.8 7.8 55 4.7 SSW 24 39 13 21 - - 0.0
28/05:30pm 18.2 13.7 8.5 53 5.1 SSW 22 37 12 20 - - 0.0
28/05:00pm 18.5 13.8 7.9 50 5.5 SSW 22 35 12 19 - - 0.0
28/04:30pm 18.7 13.5 7.2 47 5.9 SSW 24 35 13 19 - - 0.0
28/04:00pm 19.2 14.7 7.0 45 6.3 SSW 20 33 11 18 - - 0.0
28/03:30pm 19.7 16.0 7.8 46 6.2 SW 17 26 9 14 - - 0.0
28/03:00pm 20.4 17.1 6.4 40 7.2 WSW 13 22 7 12 - - 0.0
28/02:30pm 20.0 16.2 6.0 40 7.1 SW 15 30 8 16 - - 0.0
28/02:00pm 18.8 14.5 5.3 41 6.7 WSW 17 26 9 14 - - 0.0
28/01:30pm 18.6 13.9 6.1 44 6.3 SSW 20 28 11 15 - - 0.0
28/01:00pm 18.2 14.5 6.4 46 5.9 W 15 24 8 13 - - 0.0
28/12:30pm 17.9 14.2 6.1 46 5.9 SW 15 24 8 13 - - 0.0
28/12:00pm 17.1 14.5 6.3 49 5.4 WSW 9 17 5 9 - - 0.0
28/11:30am 15.8 12.7 5.4 50 5.1 SW 11 20 6 11 - - 0.0
28/11:00am 15.0 11.5 5.5 53 4.6 SW 13 22 7 12 - - 0.0
28/10:30am 14.4 12.0 5.2 54 4.4 SSE 7 17 4 9 - - 0.0
28/10:00am 13.5 10.1 6.1 61 3.6 SSW 13 24 7 13 - - 0.0
28/09:30am 13.3 10.0 6.2 62 3.4 S 13 22 7 12 - - 0.0
28/09:00am 12.3 8.9 5.7 64 3.1 S 13 20 7 11 - - 0.0
28/08:30am 11.1 7.1 6.5 73 2.2 S 17 24 9 13 - - 0.0
28/08:00am 10.0 6.8 6.7 80 1.6 S 13 19 7 10 - - 0.0
28/07:30am 8.1 4.1 6.6 90 0.7 S 17 20 9 11 - - 0.0
28/07:00am 6.6 2.4 5.9 95 0.3 S 17 19 9 10 - - 0.0
28/06:30am 6.0 1.4 5.6 97 0.2 S 19 24 10 13 - - 0.0
28/06:00am 4.7 -0.4 4.1 96 0.3 S 20 24 11 13 - - 0.0
28/05:30am 4.7 -0.4 4.1 96 0.3 S 20 26 11 14 - - 0.0
28/05:00am 4.8 -0.3 4.2 96 0.3 S 20 26 11 14 - - 0.0
28/04:30am 4.9 -0.2 4.3 96 0.3 S 20 26 11 14 - - 0.0
28/04:00am 4.9 -0.2 4.2 95 0.3 S 20 24 11 13 - - 0.0
28/03:30am 5.1 0.1 4.4 95 0.3 S 20 24 11 13 - - 0.0
28/03:00am 5.3 0.5 4.6 95 0.3 S 19 20 10 11 - - 0.0
28/02:30am 5.1 -0.3 4.4 95 0.3 S 22 28 12 15 - - 0.0
28/02:00am 5.4 1.4 4.7 95 0.3 SSE 15 24 8 13 - - 0.0
28/01:30am 5.1 1.4 4.2 94 0.4 S 13 20 7 11 - - 0.0
28/01:00am 5.2 0.7 4.2 93 0.4 S 17 22 9 12 - - 0.0
28/12:30am 6.1 0.4 5.1 93 0.4 S 24 32 13 17 - - 0.0
28/12:00am 6.4 0.4 5.2 92 0.5 S 26 33 14 18 - - 0.0
 
Date/Time
EDT
Temp
°C
App
Temp
°C
Dew
Point
Rel
Hum
%
Delta-T
°C
Wind Press
QNH
hPa
Press
MSL
hPa
Rain
since 9 am
mm
Dir
 
Spd
km/h
Gust
km/h
Spd
kts
Gust
kts
27/11:30pm 6.6 0.3 5.6 93 0.5 S 28 33 15 18 - - 0.0
27/11:00pm 6.8 0.4 5.4 91 0.6 S 28 37 15 20 - - 0.0
27/10:30pm 7.1 0.8 5.6 90 0.7 S 28 37 15 20 - - 0.0
27/10:00pm 7.5 1.2 5.6 88 0.9 S 28 35 15 19 - - 0.0
27/09:30pm 8.1 2.2 5.7 85 1.1 SSW 26 35 14 19 - - 0.0
27/09:00pm 8.8 3.6 5.7 81 1.4 S 22 28 12 15 - - 0.0
27/08:30pm 9.9 5.3 5.7 75 2.0 S 19 26 10 14 - - 0.0
27/08:00pm 11.3 7.1 5.8 69 2.6 S 17 24 9 13 - - 0.0
27/07:30pm 12.7 7.6 5.8 63 3.3 SSW 22 35 12 19 - - 0.0
27/07:00pm 14.0 9.6 6.6 61 3.6 S 19 32 10 17 - - 0.0
27/06:30pm 14.7 9.7 6.5 58 4.0 SSW 22 35 12 19 - - 0.0
27/06:00pm 15.6 11.0 6.6 55 4.5 SSW 20 30 11 16 - - 0.0
27/05:30pm 16.5 12.2 6.9 53 4.8 S 19 32 10 17 - - 0.0
27/05:00pm 16.5 10.8 6.6 52 5.0 SSW 26 37 14 20 - - 0.0
27/04:37pm 16.5 9.8 5.8 49 5.3 SSW 30 48 16 26 - - 0.0
27/04:30pm 16.9 10.4 6.7 51 5.1 SSW 30 46 16 25 - - 0.0
27/04:00pm 16.4 10.4 5.4 48 5.4 SSW 26 44 14 24 - - 0.0
27/03:30pm 16.5 10.6 5.8 49 5.3 SSW 26 43 14 23 - - 0.0
27/03:01pm 16.5 10.2 5.8 49 5.3 SSW 28 48 15 26 - - 0.0
27/03:00pm 16.4 10.5 5.7 49 5.3 SSW 26 48 14 26 - - 0.0
27/02:30pm 16.8 10.7 6.6 51 5.1 SSW 28 46 15 25 - - 0.0
27/02:23pm 16.9 10.5 5.2 46 5.7 S 28 46 15 25 - - 0.0
27/02:00pm 17.5 12.6 7.0 50 5.3 S 22 37 12 20 - - 0.0
27/01:30pm 16.6 11.3 6.7 52 5.0 S 24 37 13 20 - - 0.0
27/01:00pm 15.9 11.4 6.1 52 4.8 S 19 33 10 18 - - 0.0
27/12:30pm 15.0 8.3 5.5 53 4.6 S 30 41 16 22 - - 0.0
27/12:18pm 14.8 8.5 5.6 54 4.5 S 28 48 15 26 - - 0.0
27/12:00pm 15.9 11.0 7.1 56 4.4 S 22 37 12 20 - - 0.0
27/11:37am 14.6 7.9 5.7 55 4.3 S 30 48 16 26 - - 0.0
27/11:30am 14.4 7.8 6.0 57 4.1 SSW 30 46 16 25 - - 0.0
27/11:00am 13.7 7.5 6.3 61 3.6 SSW 28 48 15 26 - - 0.0
27/10:57am 13.7 7.5 6.1 60 3.7 SSW 28 48 15 26 - - 0.0
27/10:30am 13.7 8.0 6.8 63 3.4 S 26 41 14 22 - - 0.0
27/10:00am 12.3 6.2 6.6 68 2.8 SSW 28 39 15 21 - - 0.0
27/09:30am 11.7 5.0 5.8 67 2.8 S 30 44 16 24 - - 0.0
27/09:00am 10.6 4.5 6.4 75 2.0 S 28 44 15 24 - - 0.0
27/08:30am 9.7 3.3 5.1 73 2.1 S 28 43 15 23 - - 0.0
27/08:00am 9.0 4.1 5.2 77 1.7 SSW 20 32 11 17 - - 0.0
27/07:30am 7.5 2.5 4.6 82 1.3 SSW 20 35 11 19 - - 0.0
27/07:00am 6.6 1.7 5.2 91 0.6 S 20 26 11 14 - - 0.0
27/06:30am 4.9 -0.2 4.0 94 0.4 SSW 20 28 11 15 - - 0.0
27/06:00am 4.8 -0.2 3.8 93 0.4 SSW 19 26 10 14 - - 0.0
27/05:30am 5.0 0.1 4.0 93 0.4 SSW 19 24 10 13 - - 0.0
27/05:00am 5.3 -0.2 4.0 91 0.6 SSW 22 30 12 16 - - 0.0
27/04:30am 5.5 0.6 4.0 90 0.6 S 19 30 10 16 - - 0.0
27/04:00am 5.7 0.6 4.0 89 0.7 S 20 32 11 17 - - 0.0
27/03:30am 5.3 0.3 3.8 90 0.6 S 19 30 10 16 - - 0.0
27/03:00am 5.6 0.1 4.1 90 0.7 S 22 35 12 19 - - 0.0
27/02:30am 5.6 -0.3 3.9 89 0.7 SSW 24 33 13 18 - - 0.0
27/02:00am 5.6 -0.3 4.1 90 0.7 S 24 33 13 18 - - 0.0
27/01:30am 5.7 -0.1 4.2 90 0.7 S 24 32 13 17 - - 0.0
27/01:00am 6.0 1.0 4.5 90 0.7 S 20 26 11 14 - - 0.0
27/12:30am 6.3 1.3 4.6 89 0.8 S 20 32 11 17 - - 0.0
27/12:00am 6.4 1.5 4.9 90 0.7 S 20 33 11 18 - - 0.0
 
Date/Time
EDT
Temp
°C
App
Temp
°C
Dew
Point
Rel
Hum
%
Delta-T
°C
Wind Press
QNH
hPa
Press
MSL
hPa
Rain
since 9 am
mm
Dir
 
Spd
km/h
Gust
km/h
Spd
kts
Gust
kts
26/11:30pm 6.6 1.0 5.2 91 0.6 S 24 39 13 21 - - 0.0
26/11:00pm 6.6 1.3 5.2 91 0.6 S 22 33 12 18 - - 0.0
26/10:30pm 6.7 1.0 5.0 89 0.8 S 24 32 13 17 - - 0.0
26/10:00pm 7.0 1.4 5.2 88 0.8 S 24 33 13 18 - - 0.0
26/09:30pm 7.2 1.9 5.0 86 1.0 S 22 32 12 17 - - 0.0
26/09:00pm 7.3 2.3 4.6 83 1.2 S 20 28 11 15 - - 0.0
26/08:30pm 7.9 2.1 4.5 79 1.5 S 24 41 13 22 - - 0.0
26/08:00pm 8.4 1.8 4.2 75 1.9 SSW 28 48 15 26 - - 0.0
26/07:35pm 9.2 2.3 4.6 73 2.1 SSW 30 50 16 27 - - 0.0
26/07:30pm 9.3 3.1 4.3 71 2.3 SSW 26 41 14 22 - - 0.0
26/07:05pm 9.6 3.1 4.6 71 2.3 S 28 46 15 25 - - 0.0
26/07:00pm 9.7 2.4 4.7 71 2.3 S 32 48 17 26 - - 0.0
26/06:55pm 9.8 3.4 5.0 72 2.2 SSW 28 48 15 26 - - 0.0
26/06:30pm 10.1 3.8 5.7 74 2.1 SSW 28 39 15 21 - - 0.0
26/06:14pm 10.1 3.8 5.7 74 2.1 S 28 46 15 25 - - 0.0
26/06:00pm 10.8 4.3 6.4 74 2.1 SSW 30 46 16 25 - - 0.0
26/05:30pm 10.7 3.6 5.7 71 2.4 SSW 32 50 17 27 - - 0.0
26/05:11pm 12.1 5.3 5.3 63 3.2 S 30 48 16 26 - - 0.0
26/05:00pm 11.4 4.2 6.1 70 2.5 SSW 33 48 18 26 - - 0.0
26/04:34pm 11.6 4.5 5.7 67 2.8 SSW 32 54 17 29 - - 0.0
26/04:30pm 11.9 5.2 5.8 66 2.9 SSW 30 44 16 24 - - 0.0
26/04:07pm 12.9 6.6 7.4 69 2.7 SSW 30 48 16 26 - - 0.0
26/04:00pm 11.5 4.5 5.8 68 2.7 SSW 32 48 17 26 - - 0.0
26/03:51pm 12.7 6.2 6.7 67 2.9 SSW 30 48 16 26 - - 0.0
26/03:30pm 11.6 4.9 5.7 67 2.8 SSW 30 44 16 24 - - 0.0
26/03:00pm 12.3 6.0 7.2 71 2.5 SSW 30 50 16 27 - - 0.0
26/02:55pm 11.7 5.4 5.8 67 2.8 SSW 28 46 15 25 - - 0.0

Other Formats:

Comma delimited format used in spreadsheet applications
http://www.bom.gov.au/fwo/IDT60801/IDT60801.95956.axf

JavaScript Object Notation format (JSON) in row-major order
http://www.bom.gov.au/fwo/IDT60801/IDT60801.95956.json